If you wish to contribute or participate in the discussions about articles you are invited to join SKYbrary as a registered user

 Actions

Geilenkirchen NATO Air Base

From SKYbrary Wiki

ETNG
Airport
ICAO: ETNG
Summary
Name Geilenkirchen NATO Air Base
Region Europe
Territory Germany DE.gif
Location Geilenkirchen, North Rhine-Westphalia
Serving
Coordinates 50° 57' 38.00" N, 6° 2' 33.00" E
Runways
Designator Length Width Surface ROPS
9/27 3051 m10,009.843 ft
45 m147.638 ft
CON yes/yes


METAR
Observation ETNG 140050Z 23003KT 9999 BKN032 16/13 Q1014
Station Geilenkirchen
Date/Time 14 October 2019 00:50:00
Wind direction 230°
Wind speed 03 kts
Lowest cloud amount broken clouds
Temperature 16°C
Dew point 13°C
Humidity 82%
QNH 1014 hPa
Weather condition n/a

NATO Air Base Geilenkirchen

ICAO: ETNG IATA: GKE

Description

NATO Air Base Geilenkirchen is located near Geilenkirchen, North Rhine-Westphalia, Germany.

Maps

Terrain

Loading map...

Airport Layout

Loading map...



Accidents & Serious Incidents at or in vicinity of ETNG

None on SKYbrary